createdAt,value
2018-09-23T00:01:09.532Z,17.10
2018-09-23T00:03:38.649Z,17.10
2018-09-23T00:06:07.559Z,17.15
2018-09-23T00:08:36.614Z,17.13
2018-09-23T00:11:05.575Z,17.23
2018-09-23T00:13:34.874Z,17.24
2018-09-23T00:16:03.758Z,17.37
2018-09-23T00:18:32.655Z,17.28
2018-09-23T00:21:01.543Z,17.20
2018-09-23T00:23:30.446Z,17.06
2018-09-23T00:25:59.540Z,16.93
2018-09-23T00:28:28.400Z,16.81
2018-09-23T00:30:57.412Z,16.66
2018-09-23T00:33:26.447Z,16.60
2018-09-23T00:35:55.342Z,16.58
2018-09-23T00:38:24.232Z,16.61
2018-09-23T00:40:53.242Z,16.63
2018-09-23T00:43:22.179Z,16.58
2018-09-23T00:45:51.534Z,16.57
2018-09-23T00:48:20.417Z,16.57
2018-09-23T00:50:49.347Z,16.63
2018-09-23T00:53:18.370Z,16.53
2018-09-23T00:55:47.389Z,16.58
2018-09-23T00:58:16.308Z,16.59
2018-09-23T01:00:45.295Z,16.59
2018-09-23T01:03:14.117Z,16.54
2018-09-23T01:05:43.083Z,16.48
2018-09-23T01:08:12.040Z,16.48
2018-09-23T01:10:41.106Z,16.51
2018-09-23T01:13:10.031Z,16.46
2018-09-23T01:15:38.983Z,16.36
2018-09-23T01:18:07.908Z,16.03
2018-09-23T01:20:36.725Z,15.91
2018-09-23T01:23:05.820Z,15.69
2018-09-23T01:25:34.723Z,15.70
2018-09-23T01:28:03.638Z,15.73
2018-09-23T01:30:32.540Z,15.83
2018-09-23T01:33:01.458Z,15.94
2018-09-23T01:35:30.416Z,15.86
2018-09-23T01:37:59.283Z,15.82
2018-09-23T01:40:28.155Z,15.64
2018-09-23T01:42:57.049Z,15.70
2018-09-23T01:45:25.988Z,15.84
2018-09-23T01:47:54.979Z,15.93
2018-09-23T01:50:23.836Z,15.91
2018-09-23T01:52:52.835Z,15.78
2018-09-23T01:55:21.783Z,15.78
2018-09-23T01:57:50.663Z,15.60
2018-09-23T02:00:19.586Z,15.57
2018-09-23T02:02:48.547Z,15.49
2018-09-23T02:05:17.471Z,15.60
2018-09-23T02:07:46.352Z,15.69
2018-09-23T02:10:15.346Z,15.74
2018-09-23T02:12:44.253Z,15.87
2018-09-23T02:15:13.141Z,16.01
2018-09-23T02:17:42.116Z,15.98
2018-09-23T02:20:11.064Z,16.03
2018-09-23T02:22:39.992Z,16.13
2018-09-23T02:25:08.846Z,16.18
2018-09-23T02:27:37.939Z,16.24
2018-09-23T02:30:06.945Z,16.35
2018-09-23T02:32:35.862Z,16.36
2018-09-23T02:35:04.786Z,16.43
2018-09-23T02:37:33.756Z,16.47
2018-09-23T02:40:02.724Z,16.43
2018-09-23T02:44:55.348Z,16.40
2018-09-23T02:47:24.351Z,16.41
2018-09-23T02:49:53.320Z,16.36
2018-09-23T02:52:23.448Z,16.48
2018-09-23T02:54:52.438Z,16.51
2018-09-23T02:57:21.363Z,16.42
2018-09-23T02:59:50.231Z,16.35
2018-09-23T03:02:19.332Z,16.36
2018-09-23T03:04:48.299Z,16.16
2018-09-23T03:07:17.184Z,16.29
2018-09-23T03:09:46.182Z,16.25
2018-09-23T03:12:15.051Z,16.20
2018-09-23T03:14:44.173Z,16.12
2018-09-23T03:17:13.136Z,16.06
2018-09-23T03:19:41.980Z,16.13
2018-09-23T03:22:10.855Z,16.08
2018-09-23T03:24:39.816Z,16.03
2018-09-23T03:27:08.785Z,15.95
2018-09-23T03:29:37.708Z,15.96
2018-09-23T03:32:06.747Z,15.99
2018-09-23T03:34:35.635Z,15.99
2018-09-23T03:37:04.590Z,16.15
2018-09-23T03:39:33.612Z,16.19
2018-09-23T03:42:02.578Z,16.29
2018-09-23T03:44:31.504Z,16.28
2018-09-23T03:47:00.487Z,16.24
2018-09-23T03:49:29.379Z,16.19
2018-09-23T03:51:58.270Z,16.23
2018-09-23T03:54:27.197Z,16.28
2018-09-23T03:56:56.167Z,16.35
2018-09-23T03:59:25.089Z,16.35
2018-09-23T04:01:54.081Z,16.32
2018-09-23T04:04:24.191Z,16.38
2018-09-23T04:06:53.052Z,16.34
2018-09-23T04:09:21.932Z,16.25
2018-09-23T04:11:50.932Z,16.29
2018-09-23T04:14:19.956Z,16.25
2018-09-23T04:16:48.939Z,16.31
2018-09-23T04:19:17.906Z,16.30
2018-09-23T04:21:46.811Z,16.34
2018-09-23T04:24:15.692Z,16.37
2018-09-23T04:26:44.663Z,16.42
2018-09-23T04:29:13.514Z,16.54
2018-09-23T04:31:42.383Z,16.54
2018-09-23T04:34:12.567Z,16.59
2018-09-23T04:36:41.462Z,16.61
2018-09-23T04:39:11.466Z,16.63
2018-09-23T04:41:40.456Z,16.69
2018-09-23T04:44:09.365Z,16.83
2018-09-23T04:46:38.291Z,16.90
2018-09-23T04:49:07.307Z,16.94
2018-09-23T04:51:37.450Z,16.94
2018-09-23T04:54:06.432Z,16.86
2018-09-23T04:56:35.368Z,16.86
2018-09-23T04:59:04.311Z,16.89
2018-09-23T05:01:33.220Z,16.93
2018-09-23T05:04:02.131Z,16.96
2018-09-23T05:06:31.069Z,16.96
2018-09-23T05:08:59.984Z,17.00
2018-09-23T05:11:28.903Z,17.07
2018-09-23T05:13:57.816Z,17.10
2018-09-23T05:16:26.780Z,17.01
2018-09-23T05:18:55.724Z,17.00
2018-09-23T05:21:26.255Z,17.08
2018-09-23T05:23:55.152Z,17.22
2018-09-23T05:26:24.044Z,17.33
2018-09-23T05:28:52.935Z,17.61
2018-09-23T05:31:21.872Z,17.83
2018-09-23T05:33:50.783Z,17.97
2018-09-23T05:36:19.684Z,18.08
2018-09-23T05:38:48.596Z,18.31
2018-09-23T05:41:17.527Z,18.31
2018-09-23T05:43:46.450Z,18.44
2018-09-23T05:46:15.333Z,18.53
2018-09-23T05:48:45.631Z,18.63
2018-09-23T05:51:14.507Z,18.84
2018-09-23T05:53:44.828Z,18.93
2018-09-23T05:56:13.863Z,18.70
2018-09-23T05:58:42.945Z,18.85
2018-09-23T06:01:12.550Z,19.07
2018-09-23T06:03:41.432Z,19.30
2018-09-23T06:06:10.514Z,19.43
2018-09-23T06:08:39.547Z,19.44
2018-09-23T06:11:09.868Z,19.57
2018-09-23T06:13:38.728Z,19.40
2018-09-23T06:16:07.657Z,19.49
2018-09-23T06:18:36.938Z,19.73
2018-09-23T06:21:05.925Z,19.92
2018-09-23T06:23:34.887Z,20.03
2018-09-23T06:26:05.040Z,20.06
2018-09-23T06:28:33.900Z,20.35
2018-09-23T06:31:02.794Z,20.46
2018-09-23T06:33:31.746Z,20.66
2018-09-23T06:36:00.641Z,20.91
2018-09-23T06:38:31.209Z,20.94
2018-09-23T06:41:00.081Z,21.23
2018-09-23T06:43:28.987Z,21.45
2018-09-23T06:45:59.224Z,21.77
2018-09-23T06:48:28.244Z,22.06
2018-09-23T06:50:57.201Z,22.44
2018-09-23T06:53:27.366Z,22.71
2018-09-23T06:55:57.496Z,23.01
2018-09-23T06:58:26.329Z,23.15
2018-09-23T07:00:55.296Z,23.19
2018-09-23T07:03:24.183Z,22.98
2018-09-23T07:05:53.025Z,22.84
2018-09-23T07:08:23.388Z,23.07
2018-09-23T07:10:52.303Z,23.19
2018-09-23T07:13:21.141Z,23.06
2018-09-23T07:15:50.099Z,23.25
2018-09-23T07:18:18.993Z,23.20
2018-09-23T07:20:48.026Z,23.41
2018-09-23T07:23:16.975Z,23.60
2018-09-23T07:25:45.913Z,23.79
2018-09-23T07:28:15.659Z,23.94
2018-09-23T07:30:45.886Z,24.14
2018-09-23T07:33:14.783Z,24.29
2018-09-23T07:35:43.639Z,24.80
2018-09-23T07:38:12.637Z,25.12
2018-09-23T07:40:41.523Z,24.97
2018-09-23T07:43:10.406Z,25.24
2018-09-23T07:45:40.852Z,25.34
2018-09-23T07:48:09.837Z,25.41
2018-09-23T07:50:38.857Z,25.20
2018-09-23T07:53:07.783Z,25.41
2018-09-23T07:55:36.712Z,25.26
2018-09-23T07:58:05.791Z,25.15
2018-09-23T08:00:36.071Z,25.18
2018-09-23T08:03:04.980Z,25.46
2018-09-23T08:05:33.896Z,25.69
2018-09-23T08:08:04.188Z,25.50
2018-09-23T08:10:33.126Z,25.70
2018-09-23T08:13:02.325Z,25.80
2018-09-23T08:15:31.199Z,25.85
2018-09-23T08:18:00.127Z,25.78
2018-09-23T08:20:29.172Z,26.01
2018-09-23T08:22:57.977Z,25.77
2018-09-23T08:25:26.921Z,26.00
2018-09-23T08:27:55.939Z,26.15
2018-09-23T08:30:26.172Z,26.05
2018-09-23T08:32:55.087Z,26.01
2018-09-23T08:35:25.476Z,26.17
2018-09-23T08:37:54.388Z,26.38
2018-09-23T08:40:23.231Z,26.54
2018-09-23T08:42:53.392Z,26.75
2018-09-23T08:45:22.240Z,26.72
2018-09-23T08:47:51.259Z,26.82
2018-09-23T08:50:20.187Z,26.69
2018-09-23T08:52:50.415Z,26.87
2018-09-23T08:55:19.297Z,27.19
2018-09-23T08:57:48.254Z,27.46
2018-09-23T09:00:17.420Z,27.57
2018-09-23T09:02:46.446Z,27.79
2018-09-23T09:05:15.563Z,27.87
2018-09-23T09:07:44.624Z,27.76
2018-09-23T09:10:13.568Z,27.80
2018-09-23T09:12:42.580Z,27.66
2018-09-23T09:15:11.711Z,27.76
2018-09-23T09:17:40.676Z,27.78
2018-09-23T09:20:09.641Z,27.80
2018-09-23T09:22:38.634Z,27.91
2018-09-23T09:25:07.627Z,27.87
2018-09-23T09:27:36.569Z,27.90
2018-09-23T09:30:05.902Z,27.85
2018-09-23T09:32:35.163Z,27.91
2018-09-23T09:35:04.207Z,28.02
2018-09-23T09:37:33.160Z,27.94
2018-09-23T09:40:02.135Z,28.02
2018-09-23T09:42:31.200Z,28.03
2018-09-23T09:45:00.169Z,28.02
2018-09-23T09:47:29.284Z,28.13
2018-09-23T09:49:58.334Z,28.13
2018-09-23T09:52:27.292Z,28.39
2018-09-23T09:54:56.434Z,28.45
2018-09-23T09:57:26.742Z,28.41
2018-09-23T09:59:55.702Z,28.18
2018-09-23T10:02:24.636Z,28.31
2018-09-23T10:04:53.602Z,28.24
2018-09-23T10:07:23.867Z,28.20
2018-09-23T10:09:52.772Z,28.18
2018-09-23T10:12:21.753Z,27.84
2018-09-23T10:14:50.749Z,27.68
2018-09-23T10:17:19.876Z,27.47
2018-09-23T10:19:50.059Z,27.40
2018-09-23T10:22:19.024Z,27.03
2018-09-23T10:24:47.962Z,26.98
2018-09-23T10:27:18.407Z,26.84
2018-09-23T10:29:47.346Z,27.10
2018-09-23T10:32:16.316Z,26.83
2018-09-23T10:34:45.337Z,26.75
2018-09-23T10:37:14.298Z,26.95
2018-09-23T10:39:43.255Z,26.77
2018-09-23T10:42:13.571Z,26.62
2018-09-23T10:44:42.526Z,26.40
2018-09-23T10:47:11.452Z,26.26
2018-09-23T10:49:40.513Z,26.14
2018-09-23T10:52:09.520Z,26.10
2018-09-23T10:54:38.491Z,25.93
2018-09-23T10:57:07.462Z,25.99
2018-09-23T10:59:37.889Z,25.81
2018-09-23T11:02:06.844Z,25.84
2018-09-23T11:04:35.800Z,25.57
2018-09-23T11:07:06.006Z,25.58
2018-09-23T11:09:34.945Z,25.51
2018-09-23T11:12:03.925Z,25.23
2018-09-23T11:14:34.302Z,25.01
2018-09-23T11:17:03.226Z,24.76
2018-09-23T11:19:32.136Z,24.75
2018-09-23T11:22:02.424Z,24.69
2018-09-23T11:24:31.325Z,24.71
2018-09-23T11:27:00.270Z,24.86
2018-09-23T11:29:30.732Z,24.81
2018-09-23T11:31:59.642Z,24.89
2018-09-23T11:34:28.571Z,25.06
2018-09-23T11:36:58.725Z,25.03
2018-09-23T11:39:27.675Z,25.25
2018-09-23T11:41:56.616Z,25.04
2018-09-23T11:44:25.687Z,25.15
2018-09-23T11:46:54.639Z,25.19
2018-09-23T11:49:23.608Z,25.43
2018-09-23T11:51:52.615Z,25.14
2018-09-23T11:54:21.762Z,25.11
2018-09-23T11:56:50.732Z,25.38
2018-09-23T11:59:21.414Z,25.21
2018-09-23T12:01:50.437Z,25.20
2018-09-23T12:04:19.381Z,25.33
2018-09-23T12:06:48.371Z,25.24
2018-09-23T12:09:17.413Z,25.09
2018-09-23T12:11:46.356Z,25.33
2018-09-23T12:14:15.330Z,25.15
2018-09-23T12:16:44.246Z,25.41
2018-09-23T12:19:13.164Z,25.23
2018-09-23T12:21:42.152Z,25.09
2018-09-23T12:24:11.181Z,25.00
2018-09-23T12:26:40.134Z,25.05
2018-09-23T12:29:09.120Z,25.10
2018-09-23T12:31:38.124Z,25.24
2018-09-23T12:34:07.076Z,25.15
2018-09-23T12:36:37.398Z,24.94
2018-09-23T12:39:09.253Z,25.03
2018-09-23T12:41:39.812Z,25.07
2018-09-23T12:44:08.954Z,25.05
2018-09-23T12:46:37.892Z,24.99
2018-09-23T12:49:07.081Z,25.00
2018-09-23T12:51:36.008Z,24.85
2018-09-23T12:54:04.922Z,24.76
2018-09-23T12:56:34.270Z,24.90
2018-09-23T12:59:03.221Z,24.94
2018-09-23T13:01:32.140Z,24.90
2018-09-23T13:04:01.119Z,25.44
2018-09-23T13:06:30.075Z,25.80
2018-09-23T13:08:59.007Z,26.58
2018-09-23T13:11:27.969Z,27.29
2018-09-23T13:13:56.896Z,27.76
2018-09-23T13:16:26.771Z,27.22
2018-09-23T13:18:55.793Z,27.28
2018-09-23T13:21:24.809Z,27.83
2018-09-23T13:23:53.725Z,27.93
2018-09-23T13:26:22.643Z,27.67
2018-09-23T13:28:51.655Z,27.68
2018-09-23T13:31:20.620Z,27.67
2018-09-23T13:33:49.559Z,27.53
2018-09-23T13:36:18.518Z,27.71
2018-09-23T13:38:47.452Z,27.76
2018-09-23T13:41:16.369Z,27.50
2018-09-23T13:43:45.373Z,27.59
2018-09-23T13:46:14.346Z,27.75
2018-09-23T13:48:43.384Z,27.57
2018-09-23T13:51:12.494Z,27.45
2018-09-23T13:53:41.511Z,27.73
2018-09-23T13:56:10.480Z,27.55
2018-09-23T13:58:40.824Z,27.47
2018-09-23T14:01:10.074Z,27.47
2018-09-23T14:03:39.236Z,27.26
2018-09-23T14:06:09.618Z,26.97
2018-09-23T14:08:38.624Z,27.52
2018-09-23T14:11:07.775Z,27.82
2018-09-23T14:13:36.813Z,27.46
2018-09-23T14:16:05.795Z,26.97
2018-09-23T14:18:34.793Z,26.39
2018-09-23T14:21:05.157Z,26.50
2018-09-23T14:23:34.187Z,26.31
2018-09-23T14:26:03.156Z,26.22
2018-09-23T14:28:32.145Z,26.15
2018-09-23T14:31:01.132Z,26.70
2018-09-23T14:33:31.453Z,25.87
2018-09-23T14:36:00.599Z,25.89
2018-09-23T14:38:29.636Z,25.67
2018-09-23T14:40:59.974Z,25.96
2018-09-23T14:43:28.931Z,26.46
2018-09-23T14:45:57.845Z,26.14
2018-09-23T14:48:28.294Z,25.81
2018-09-23T14:50:57.202Z,25.55
2018-09-23T14:53:26.157Z,25.79
2018-09-23T14:55:56.422Z,25.54
2018-09-23T14:58:25.333Z,25.54
2018-09-23T15:00:54.403Z,25.59
2018-09-23T15:03:25.909Z,25.50
2018-09-23T15:05:54.892Z,25.58
2018-09-23T15:08:23.890Z,25.05
2018-09-23T15:10:52.825Z,25.07
2018-09-23T15:13:21.761Z,24.92
2018-09-23T15:15:51.906Z,24.84
2018-09-23T15:18:20.892Z,24.71
2018-09-23T15:20:49.877Z,24.60
2018-09-23T15:23:18.832Z,24.42
2018-09-23T15:25:49.074Z,24.33
2018-09-23T15:28:19.282Z,24.30
2018-09-23T15:30:48.270Z,24.16
2018-09-23T15:33:17.239Z,23.91
2018-09-23T15:35:46.219Z,23.93
2018-09-23T15:38:15.171Z,23.71
2018-09-23T15:40:44.197Z,23.58
2018-09-23T15:43:13.150Z,23.48
2018-09-23T15:45:42.116Z,23.45
2018-09-23T15:48:12.595Z,23.31
2018-09-23T15:50:41.527Z,23.17
2018-09-23T15:53:10.392Z,23.14
2018-09-23T15:55:39.332Z,23.00
2018-09-23T15:58:08.572Z,22.83
2018-09-23T16:00:37.452Z,22.78
2018-09-23T16:03:06.548Z,22.69
2018-09-23T16:05:35.501Z,22.61
2018-09-23T16:08:04.359Z,22.54
2018-09-23T16:10:34.534Z,22.56
2018-09-23T16:13:03.476Z,22.47
2018-09-23T16:15:32.476Z,22.39
2018-09-23T16:18:01.529Z,22.37
2018-09-23T16:20:30.565Z,22.33
2018-09-23T16:22:59.530Z,22.26
2018-09-23T16:25:29.873Z,22.26
2018-09-23T16:27:58.803Z,22.20
2018-09-23T16:30:27.742Z,22.24
2018-09-23T16:32:56.792Z,22.23
2018-09-23T16:35:25.717Z,22.21
2018-09-23T16:37:54.629Z,22.22
2018-09-23T16:40:24.863Z,22.12
2018-09-23T16:42:53.805Z,22.12
2018-09-23T16:45:22.780Z,22.19
2018-09-23T16:47:51.799Z,22.12
2018-09-23T16:50:20.713Z,22.21
2018-09-23T16:52:49.652Z,22.23
2018-09-23T16:55:18.628Z,22.21
2018-09-23T16:57:47.672Z,22.11
2018-09-23T17:00:17.972Z,22.12
2018-09-23T17:02:46.992Z,22.10
2018-09-23T17:05:15.944Z,22.12
2018-09-23T17:07:44.904Z,22.12
2018-09-23T17:10:13.874Z,22.19
2018-09-23T17:12:42.922Z,22.23
2018-09-23T17:15:11.957Z,22.15
2018-09-23T17:17:40.971Z,22.16
2018-09-23T17:20:10.006Z,22.13
2018-09-23T17:22:38.997Z,22.12
2018-09-23T17:25:07.497Z,22.05
2018-09-23T17:27:36.548Z,22.04
2018-09-23T17:30:05.838Z,22.06
2018-09-23T17:32:34.751Z,22.03
2018-09-23T17:35:03.925Z,22.02
2018-09-23T17:37:32.855Z,22.06
2018-09-23T17:40:01.751Z,21.99
2018-09-23T17:42:30.820Z,22.06
2018-09-23T17:44:59.741Z,22.01
2018-09-23T17:47:28.952Z,22.05
2018-09-23T17:49:57.884Z,22.01
2018-09-23T17:52:26.888Z,22.07
2018-09-23T17:54:57.179Z,22.04
2018-09-23T17:57:26.064Z,22.09
2018-09-23T17:59:55.059Z,22.15
2018-09-23T18:02:24.206Z,22.11
2018-09-23T18:04:55.602Z,22.11
2018-09-23T18:07:24.572Z,22.14
2018-09-23T18:09:53.479Z,22.12
2018-09-23T18:12:22.360Z,22.17
2018-09-23T18:14:51.309Z,22.15
2018-09-23T18:17:20.333Z,22.17
2018-09-23T18:19:49.239Z,22.18
2018-09-23T18:22:18.192Z,22.22
2018-09-23T18:24:47.148Z,22.24
2018-09-23T18:27:16.044Z,22.21
2018-09-23T18:29:45.177Z,22.24
2018-09-23T18:32:14.190Z,22.22
2018-09-23T18:34:43.184Z,22.24
2018-09-23T18:37:12.166Z,22.30
2018-09-23T18:39:41.069Z,22.29
2018-09-23T18:42:10.066Z,22.26
2018-09-23T18:44:39.060Z,22.31
2018-09-23T18:47:07.992Z,22.24
2018-09-23T18:49:36.960Z,22.21
2018-09-23T18:52:05.931Z,22.26
2018-09-23T18:54:41.225Z,22.29
2018-09-23T18:57:10.126Z,22.33
2018-09-23T18:59:39.081Z,22.31
2018-09-23T19:02:08.039Z,22.35
2018-09-23T19:04:36.978Z,22.39
2018-09-23T19:07:05.956Z,22.42
2018-09-23T19:09:34.998Z,22.43
2018-09-23T19:12:03.974Z,22.41
2018-09-23T19:14:35.690Z,22.35
2018-09-23T19:17:04.821Z,22.32
2018-09-23T19:19:38.942Z,22.37
2018-09-23T19:22:11.902Z,22.39
2018-09-23T19:24:42.004Z,22.55
2018-09-23T19:27:10.945Z,22.46
2018-09-23T19:29:39.872Z,22.33
2018-09-23T19:32:08.817Z,22.22
2018-09-23T19:34:37.770Z,22.15
2018-09-23T19:37:06.868Z,22.13
2018-09-23T19:39:35.829Z,22.14
2018-09-23T19:42:04.740Z,22.06
2018-09-23T19:44:33.743Z,22.02
2018-09-23T19:47:02.760Z,22.08
2018-09-23T19:49:31.687Z,22.11
2018-09-23T19:52:00.744Z,22.04
2018-09-23T19:54:29.740Z,21.97
2018-09-23T19:56:58.915Z,22.05
2018-09-23T19:59:27.885Z,22.03
2018-09-23T20:01:56.894Z,22.00
2018-09-23T20:04:25.883Z,21.98
2018-09-23T20:07:01.313Z,22.03
2018-09-23T20:09:31.620Z,22.02
2018-09-23T20:12:00.498Z,22.10
2018-09-23T20:14:29.427Z,22.11
2018-09-23T20:16:59.711Z,22.17
2018-09-23T20:19:28.641Z,22.19
2018-09-23T20:21:57.580Z,22.20
2018-09-23T20:24:27.849Z,22.29
2018-09-23T20:26:56.802Z,22.34
2018-09-23T20:29:25.724Z,22.24
2018-09-23T20:31:54.720Z,22.19
2018-09-23T20:34:23.736Z,22.13
2018-09-23T20:36:53.971Z,22.10
2018-09-23T20:39:24.141Z,22.10
2018-09-23T20:41:54.367Z,22.04
2018-09-23T20:44:23.299Z,22.04
2018-09-23T20:46:53.437Z,21.87
2018-09-23T20:49:22.304Z,21.82
2018-09-23T20:51:51.203Z,21.88
2018-09-23T20:54:20.136Z,21.93
2018-09-23T20:56:49.083Z,21.87
2018-09-23T20:59:19.516Z,21.90
2018-09-23T21:01:48.532Z,21.86
2018-09-23T21:04:17.359Z,21.85
2018-09-23T21:06:46.271Z,21.79
2018-09-23T21:09:15.217Z,21.70
2018-09-23T21:11:44.293Z,21.73
2018-09-23T21:14:13.276Z,21.71
2018-09-23T21:16:42.342Z,21.70
2018-09-23T21:19:11.424Z,21.73
2018-09-23T21:21:40.354Z,21.71
2018-09-23T21:24:10.703Z,21.68
2018-09-23T21:26:39.557Z,21.67
2018-09-23T21:29:08.520Z,21.68
2018-09-23T21:31:37.808Z,21.64
2018-09-23T21:34:06.745Z,21.65
2018-09-23T21:36:35.669Z,21.65
2018-09-23T21:39:05.752Z,21.64
2018-09-23T21:41:34.695Z,21.67
2018-09-23T21:44:03.714Z,21.65
2018-09-23T21:46:32.582Z,21.63
2018-09-23T21:49:01.514Z,21.75
2018-09-23T21:51:30.545Z,21.69
2018-09-23T21:53:59.476Z,21.28
2018-09-23T21:56:28.520Z,20.69
2018-09-23T21:58:57.677Z,20.71
2018-09-23T22:01:26.577Z,20.63
2018-09-23T22:03:55.561Z,20.70
2018-09-23T22:06:24.531Z,20.77
2018-09-23T22:08:53.457Z,20.92
2018-09-23T22:11:22.420Z,20.90
2018-09-23T22:13:51.387Z,20.97
2018-09-23T22:16:20.399Z,20.83
2018-09-23T22:18:49.279Z,20.75
2018-09-23T22:21:18.248Z,20.88
2018-09-23T22:23:47.233Z,20.62
2018-09-23T22:26:16.188Z,20.56
2018-09-23T22:28:45.152Z,20.50
2018-09-23T22:31:14.145Z,20.49
2018-09-23T22:33:43.133Z,20.47
2018-09-23T22:36:12.055Z,20.48
2018-09-23T22:38:41.019Z,20.48
2018-09-23T22:41:09.983Z,20.42
2018-09-23T22:43:38.872Z,20.31
2018-09-23T22:46:07.847Z,20.33
2018-09-23T22:48:36.886Z,20.41
2018-09-23T22:51:05.875Z,20.32
2018-09-23T22:53:34.736Z,20.38
2018-09-23T22:56:03.736Z,20.41
2018-09-23T22:58:32.751Z,20.44
2018-09-23T23:01:01.636Z,20.47
2018-09-23T23:03:30.620Z,20.49
2018-09-23T23:05:59.628Z,20.56
2018-09-23T23:08:28.572Z,20.52
2018-09-23T23:10:57.508Z,20.52
2018-09-23T23:13:26.407Z,20.46
2018-09-23T23:15:55.308Z,20.42
2018-09-23T23:18:24.232Z,20.30
2018-09-23T23:20:53.186Z,20.28
2018-09-23T23:23:22.113Z,20.26
2018-09-23T23:25:51.032Z,20.26
2018-09-23T23:28:19.963Z,20.24
2018-09-23T23:30:48.880Z,20.20
2018-09-23T23:33:17.856Z,20.18
2018-09-23T23:35:46.761Z,20.18
2018-09-23T23:38:15.804Z,20.20
2018-09-23T23:40:44.821Z,20.26
2018-09-23T23:43:13.649Z,20.33
2018-09-23T23:45:42.571Z,20.39
2018-09-23T23:48:11.450Z,20.41
2018-09-23T23:50:40.394Z,20.39
2018-09-23T23:53:09.360Z,20.45
2018-09-23T23:55:38.252Z,20.42
2018-09-23T23:58:07.207Z,20.26
